Terminal Aerodrome Forecast
Issued by NWS

Home | Current Version | Previous Version | Graphics & Text | Print | Product List | Glossary On
Versions: 1 2 3 4 5 6 7 8 9 10 11 12 13
004
FTUS43 KMPX 241151
TAFRNH
TAF
KRNH 241151Z 2412/2512 22005KT P6SM BKN007 OVC012
     FM241500 26007KT P6SM BKN015 OVC025
     FM241800 29010KT P6SM SCT030 SCT200
     FM242000 28010KT P6SM SCT250
     FM250200 26003KT P6SM SCT250=

USA.gov is the U.S. government's official web portal to all federal, state and local government web resources and services.